KHII/HII METAR and TAF weather

Enter ICAO airport designator
Station Type Date Time Source
KHII METAR 2019/04/24 21:55 UTC NOAA

KHII 242155Z AUTO 35008KT 300V010 10SM CLR 35/00 A2982 RMK AO2


Station Type Date Time Source
KHII Decoded METAR 2019/04/24 21:55 UTC NOAA

Station name not available
Apr 24, 2019 - 05:55 PM EDT / 2019.04.24 2155 UTC
Wind: from the N (350 degrees) at 9 MPH (8 KT) (direction variable):0
Visibility: 10 mile(s):0
Sky conditions: clear
Temperature: 95 F (35 C)
Dew Point: 32 F (0 C)
Relative Humidity: 10%
Pressure (altimeter): 29.82 in. Hg (1009 hPa)
ob: KHII 242155Z AUTO 35008KT 300V010 10SM CLR 35/00 A2982 RMK AO2
cycle: 22

Station Type Date Time Source
KHII TAF UTC NOAA

Error!

Example: see airport list